sensor_id;sensor_type;location;lat;lon;timestamp;P1;durP1;ratioP1;P2;durP2;ratioP2
21591;SDS011;10958;50.892;3.992;2023-06-04T00:00:28;2.47;;;1.30;;
21591;SDS011;10958;50.892;3.992;2023-06-04T00:02:54;1.80;;;1.10;;
21591;SDS011;10958;50.892;3.992;2023-06-04T00:05:22;1.70;;;1.05;;
21591;SDS011;10958;50.892;3.992;2023-06-04T00:07:50;2.10;;;1.00;;
21591;SDS011;10958;50.892;3.992;2023-06-04T00:10:16;4.10;;;1.20;;
21591;SDS011;10958;50.892;3.992;2023-06-04T00:12:42;3.83;;;1.00;;
21591;SDS011;10958;50.892;3.992;2023-06-04T00:15:08;2.97;;;1.15;;
21591;SDS011;10958;50.892;3.992;2023-06-04T00:17:35;2.15;;;1.17;;
21591;SDS011;10958;50.892;3.992;2023-06-04T00:20:01;2.40;;;1.23;;
21591;SDS011;10958;50.892;3.992;2023-06-04T00:22:27;4.50;;;1.17;;
21591;SDS011;10958;50.892;3.992;2023-06-04T00:24:52;2.30;;;1.30;;
21591;SDS011;10958;50.892;3.992;2023-06-04T00:27:18;3.25;;;1.23;;
21591;SDS011;10958;50.892;3.992;2023-06-04T00:29:44;3.33;;;1.20;;
21591;SDS011;10958;50.892;3.992;2023-06-04T00:32:10;3.97;;;1.17;;
21591;SDS011;10958;50.892;3.992;2023-06-04T00:34:39;2.90;;;1.30;;
21591;SDS011;10958;50.892;3.992;2023-06-04T00:37:06;3.80;;;1.60;;
21591;SDS011;10958;50.892;3.992;2023-06-04T00:39:32;7.20;;;1.20;;
21591;SDS011;10958;50.892;3.992;2023-06-04T00:41:59;2.30;;;1.40;;
21591;SDS011;10958;50.892;3.992;2023-06-04T00:44:25;5.57;;;1.70;;
21591;SDS011;10958;50.892;3.992;2023-06-04T00:46:51;2.55;;;1.30;;
21591;SDS011;10958;50.892;3.992;2023-06-04T00:49:18;3.15;;;1.55;;
21591;SDS011;10958;50.892;3.992;2023-06-04T00:51:49;3.75;;;1.20;;
21591;SDS011;10958;50.892;3.992;2023-06-04T00:54:15;3.35;;;1.10;;
21591;SDS011;10958;50.892;3.992;2023-06-04T00:56:43;4.18;;;1.40;;
21591;SDS011;10958;50.892;3.992;2023-06-04T00:59:09;2.75;;;1.60;;
21591;SDS011;10958;50.892;3.992;2023-06-04T01:01:49;1.88;;;1.35;;
21591;SDS011;10958;50.892;3.992;2023-06-04T01:07:15;5.43;;;1.48;;
21591;SDS011;10958;50.892;3.992;2023-06-04T01:09:43;6.00;;;1.70;;
21591;SDS011;10958;50.892;3.992;2023-06-04T01:13:52;3.95;;;1.85;;
21591;SDS011;10958;50.892;3.992;2023-06-04T01:16:20;3.10;;;1.80;;
21591;SDS011;10958;50.892;3.992;2023-06-04T01:18:45;6.90;;;1.73;;
21591;SDS011;10958;50.892;3.992;2023-06-04T01:21:18;3.15;;;1.77;;
21591;SDS011;10958;50.892;3.992;2023-06-04T01:26:26;3.20;;;1.80;;
21591;SDS011;10958;50.892;3.992;2023-06-04T01:28:53;2.97;;;2.17;;
21591;SDS011;10958;50.892;3.992;2023-06-04T01:31:21;6.35;;;1.95;;
21591;SDS011;10958;50.892;3.992;2023-06-04T01:33:54;2.65;;;1.67;;
21591;SDS011;10958;50.892;3.992;2023-06-04T01:36:22;5.05;;;1.70;;
21591;SDS011;10958;50.892;3.992;2023-06-04T01:38:50;4.13;;;1.80;;
21591;SDS011;10958;50.892;3.992;2023-06-04T01:41:16;4.95;;;1.55;;
21591;SDS011;10958;50.892;3.992;2023-06-04T01:43:42;3.05;;;1.77;;
21591;SDS011;10958;50.892;3.992;2023-06-04T01:46:09;4.75;;;1.70;;
21591;SDS011;10958;50.892;3.992;2023-06-04T01:48:35;2.47;;;1.70;;
21591;SDS011;10958;50.892;3.992;2023-06-04T01:51:03;4.75;;;2.13;;
21591;SDS011;10958;50.892;3.992;2023-06-04T01:53:30;3.70;;;1.83;;
21591;SDS011;10958;50.892;3.992;2023-06-04T01:55:59;4.53;;;1.70;;
21591;SDS011;10958;50.892;3.992;2023-06-04T01:58:24;4.47;;;1.98;;
21591;SDS011;10958;50.892;3.992;2023-06-04T02:00:55;4.93;;;1.80;;
21591;SDS011;10958;50.892;3.992;2023-06-04T02:03:25;5.00;;;1.75;;
21591;SDS011;10958;50.892;3.992;2023-06-04T02:05:53;4.55;;;1.92;;
21591;SDS011;10958;50.892;3.992;2023-06-04T02:08:19;4.60;;;2.00;;
21591;SDS011;10958;50.892;3.992;2023-06-04T02:10:48;3.35;;;1.83;;
21591;SDS011;10958;50.892;3.992;2023-06-04T02:13:14;4.28;;;1.65;;
21591;SDS011;10958;50.892;3.992;2023-06-04T02:15:40;3.03;;;1.90;;
21591;SDS011;10958;50.892;3.992;2023-06-04T02:18:12;3.55;;;1.80;;
21591;SDS011;10958;50.892;3.992;2023-06-04T02:20:46;2.60;;;1.67;;
21591;SDS011;10958;50.892;3.992;2023-06-04T02:23:17;3.05;;;1.80;;
21591;SDS011;10958;50.892;3.992;2023-06-04T02:25:44;3.65;;;1.98;;
21591;SDS011;10958;50.892;3.992;2023-06-04T02:28:11;2.95;;;1.90;;
21591;SDS011;10958;50.892;3.992;2023-06-04T02:30:38;6.45;;;2.17;;
21591;SDS011;10958;50.892;3.992;2023-06-04T02:33:06;5.00;;;1.80;;
21591;SDS011;10958;50.892;3.992;2023-06-04T02:35:34;3.25;;;1.98;;
21591;SDS011;10958;50.892;3.992;2023-06-04T02:38:03;6.18;;;2.20;;
21591;SDS011;10958;50.892;3.992;2023-06-04T02:40:30;8.82;;;2.00;;
21591;SDS011;10958;50.892;3.992;2023-06-04T02:42:55;3.33;;;2.13;;
21591;SDS011;10958;50.892;3.992;2023-06-04T02:45:22;4.95;;;2.20;;
21591;SDS011;10958;50.892;3.992;2023-06-04T02:50:16;5.20;;;2.15;;
21591;SDS011;10958;50.892;3.992;2023-06-04T02:52:42;4.53;;;2.10;;
21591;SDS011;10958;50.892;3.992;2023-06-04T02:55:08;3.20;;;2.00;;
21591;SDS011;10958;50.892;3.992;2023-06-04T02:57:39;9.40;;;2.65;;
21591;SDS011;10958;50.892;3.992;2023-06-04T03:00:07;4.70;;;2.17;;
21591;SDS011;10958;50.892;3.992;2023-06-04T03:02:43;3.53;;;2.30;;
21591;SDS011;10958;50.892;3.992;2023-06-04T03:05:14;5.85;;;2.20;;
21591;SDS011;10958;50.892;3.992;2023-06-04T03:07:41;7.88;;;2.38;;
21591;SDS011;10958;50.892;3.992;2023-06-04T03:10:08;2.80;;;2.22;;
21591;SDS011;10958;50.892;3.992;2023-06-04T03:12:35;10.30;;;2.45;;
21591;SDS011;10958;50.892;3.992;2023-06-04T03:15:01;4.85;;;2.20;;
21591;SDS011;10958;50.892;3.992;2023-06-04T03:17:28;6.35;;;2.22;;
21591;SDS011;10958;50.892;3.992;2023-06-04T03:19:53;4.68;;;2.00;;
21591;SDS011;10958;50.892;3.992;2023-06-04T03:22:21;6.07;;;2.00;;
21591;SDS011;10958;50.892;3.992;2023-06-04T03:24:47;6.63;;;2.55;;
21591;SDS011;10958;50.892;3.992;2023-06-04T03:27:13;6.53;;;2.40;;
21591;SDS011;10958;50.892;3.992;2023-06-04T03:29:39;4.38;;;1.83;;
21591;SDS011;10958;50.892;3.992;2023-06-04T03:32:05;3.75;;;1.95;;
21591;SDS011;10958;50.892;3.992;2023-06-04T03:34:31;5.53;;;2.10;;
21591;SDS011;10958;50.892;3.992;2023-06-04T03:36:57;6.05;;;2.60;;
21591;SDS011;10958;50.892;3.992;2023-06-04T03:39:23;6.00;;;2.00;;
21591;SDS011;10958;50.892;3.992;2023-06-04T03:41:50;4.45;;;2.00;;
21591;SDS011;10958;50.892;3.992;2023-06-04T03:44:16;3.97;;;2.30;;
21591;SDS011;10958;50.892;3.992;2023-06-04T03:46:43;3.58;;;2.13;;
21591;SDS011;10958;50.892;3.992;2023-06-04T03:49:09;3.88;;;2.17;;
21591;SDS011;10958;50.892;3.992;2023-06-04T03:51:40;2.58;;;2.17;;
21591;SDS011;10958;50.892;3.992;2023-06-04T03:54:06;3.63;;;2.20;;
21591;SDS011;10958;50.892;3.992;2023-06-04T03:56:32;4.68;;;2.20;;
21591;SDS011;10958;50.892;3.992;2023-06-04T03:58:58;4.03;;;2.05;;
21591;SDS011;10958;50.892;3.992;2023-06-04T04:01:26;8.10;;;2.30;;
21591;SDS011;10958;50.892;3.992;2023-06-04T04:03:53;4.90;;;2.05;;
21591;SDS011;10958;50.892;3.992;2023-06-04T04:06:21;6.97;;;2.10;;
21591;SDS011;10958;50.892;3.992;2023-06-04T04:08:47;3.35;;;2.17;;
21591;SDS011;10958;50.892;3.992;2023-06-04T04:11:14;4.55;;;2.40;;
21591;SDS011;10958;50.892;3.992;2023-06-04T04:13:42;5.05;;;2.00;;
21591;SDS011;10958;50.892;3.992;2023-06-04T04:16:11;4.93;;;2.10;;
21591;SDS011;10958;50.892;3.992;2023-06-04T04:18:36;2.85;;;2.40;;
21591;SDS011;10958;50.892;3.992;2023-06-04T04:21:02;4.18;;;2.22;;
21591;SDS011;10958;50.892;3.992;2023-06-04T04:23:30;4.93;;;2.00;;
21591;SDS011;10958;50.892;3.992;2023-06-04T04:26:01;7.90;;;2.25;;
21591;SDS011;10958;50.892;3.992;2023-06-04T04:28:27;4.40;;;2.10;;
21591;SDS011;10958;50.892;3.992;2023-06-04T04:30:56;2.92;;;1.95;;
21591;SDS011;10958;50.892;3.992;2023-06-04T04:33:24;4.60;;;2.22;;
21591;SDS011;10958;50.892;3.992;2023-06-04T04:35:50;5.10;;;2.10;;
21591;SDS011;10958;50.892;3.992;2023-06-04T04:38:19;4.63;;;2.40;;
21591;SDS011;10958;50.892;3.992;2023-06-04T04:40:49;3.17;;;2.25;;
21591;SDS011;10958;50.892;3.992;2023-06-04T04:43:17;6.43;;;2.10;;
21591;SDS011;10958;50.892;3.992;2023-06-04T04:46:05;4.35;;;1.83;;
21591;SDS011;10958;50.892;3.992;2023-06-04T04:48:31;3.95;;;1.88;;
21591;SDS011;10958;50.892;3.992;2023-06-04T04:50:57;5.63;;;2.08;;
21591;SDS011;10958;50.892;3.992;2023-06-04T04:53:23;3.97;;;2.17;;
21591;SDS011;10958;50.892;3.992;2023-06-04T04:55:49;6.28;;;2.42;;
21591;SDS011;10958;50.892;3.992;2023-06-04T04:58:15;4.60;;;2.10;;
21591;SDS011;10958;50.892;3.992;2023-06-04T05:00:42;3.42;;;2.30;;
21591;SDS011;10958;50.892;3.992;2023-06-04T05:03:08;5.65;;;2.28;;
21591;SDS011;10958;50.892;3.992;2023-06-04T05:05:34;5.47;;;2.20;;
21591;SDS011;10958;50.892;3.992;2023-06-04T05:08:00;6.38;;;1.98;;
21591;SDS011;10958;50.892;3.992;2023-06-04T05:10:25;4.57;;;2.20;;
21591;SDS011;10958;50.892;3.992;2023-06-04T05:12:52;5.97;;;2.53;;
21591;SDS011;10958;50.892;3.992;2023-06-04T05:15:22;6.60;;;2.08;;
21591;SDS011;10958;50.892;3.992;2023-06-04T05:17:49;4.35;;;1.83;;
21591;SDS011;10958;50.892;3.992;2023-06-04T05:20:17;6.32;;;2.00;;
21591;SDS011;10958;50.892;3.992;2023-06-04T05:22:44;2.97;;;1.95;;
21591;SDS011;10958;50.892;3.992;2023-06-04T05:25:14;5.05;;;2.22;;
21591;SDS011;10958;50.892;3.992;2023-06-04T05:27:44;8.23;;;2.53;;
21591;SDS011;10958;50.892;3.992;2023-06-04T05:30:10;3.65;;;2.10;;
21591;SDS011;10958;50.892;3.992;2023-06-04T05:32:36;4.25;;;2.17;;
21591;SDS011;10958;50.892;3.992;2023-06-04T05:35:05;5.50;;;2.10;;
21591;SDS011;10958;50.892;3.992;2023-06-04T05:37:32;3.00;;;1.88;;
21591;SDS011;10958;50.892;3.992;2023-06-04T05:39:59;4.47;;;2.10;;
21591;SDS011;10958;50.892;3.992;2023-06-04T05:42:25;5.00;;;1.92;;
21591;SDS011;10958;50.892;3.992;2023-06-04T05:44:51;3.50;;;1.88;;
21591;SDS011;10958;50.892;3.992;2023-06-04T05:47:17;6.57;;;1.98;;
21591;SDS011;10958;50.892;3.992;2023-06-04T05:49:43;5.00;;;2.20;;
21591;SDS011;10958;50.892;3.992;2023-06-04T05:52:09;4.15;;;2.00;;
21591;SDS011;10958;50.892;3.992;2023-06-04T05:54:37;6.32;;;2.00;;
21591;SDS011;10958;50.892;3.992;2023-06-04T05:57:04;4.33;;;2.20;;
21591;SDS011;10958;50.892;3.992;2023-06-04T05:59:30;2.65;;;1.80;;
21591;SDS011;10958;50.892;3.992;2023-06-04T06:01:56;3.85;;;1.90;;
21591;SDS011;10958;50.892;3.992;2023-06-04T06:04:22;5.43;;;1.85;;
21591;SDS011;10958;50.892;3.992;2023-06-04T06:06:48;5.70;;;2.00;;
21591;SDS011;10958;50.892;3.992;2023-06-04T06:09:16;6.43;;;2.00;;
21591;SDS011;10958;50.892;3.992;2023-06-04T06:11:43;4.32;;;1.90;;
21591;SDS011;10958;50.892;3.992;2023-06-04T06:14:11;5.72;;;2.33;;
21591;SDS011;10958;50.892;3.992;2023-06-04T06:16:40;5.13;;;1.80;;
21591;SDS011;10958;50.892;3.992;2023-06-04T06:19:07;9.23;;;2.13;;
21591;SDS011;10958;50.892;3.992;2023-06-04T06:21:36;4.55;;;1.88;;
21591;SDS011;10958;50.892;3.992;2023-06-04T06:24:02;2.75;;;1.90;;
21591;SDS011;10958;50.892;3.992;2023-06-04T06:26:28;3.53;;;1.63;;
21591;SDS011;10958;50.892;3.992;2023-06-04T06:28:57;2.85;;;2.05;;
21591;SDS011;10958;50.892;3.992;2023-06-04T06:31:23;4.03;;;1.70;;
21591;SDS011;10958;50.892;3.992;2023-06-04T06:33:48;4.13;;;1.80;;
21591;SDS011;10958;50.892;3.992;2023-06-04T06:36:15;4.03;;;1.80;;
21591;SDS011;10958;50.892;3.992;2023-06-04T06:38:41;2.60;;;1.60;;
21591;SDS011;10958;50.892;3.992;2023-06-04T06:41:07;3.35;;;1.85;;
21591;SDS011;10958;50.892;3.992;2023-06-04T06:43:33;1.92;;;1.60;;
21591;SDS011;10958;50.892;3.992;2023-06-04T06:45:59;4.07;;;1.95;;
21591;SDS011;10958;50.892;3.992;2023-06-04T06:48:25;2.38;;;1.83;;
21591;SDS011;10958;50.892;3.992;2023-06-04T06:50:50;4.07;;;2.10;;
21591;SDS011;10958;50.892;3.992;2023-06-04T06:53:18;5.60;;;1.90;;
21591;SDS011;10958;50.892;3.992;2023-06-04T06:55:44;2.45;;;1.70;;
21591;SDS011;10958;50.892;3.992;2023-06-04T06:58:10;3.90;;;1.88;;
21591;SDS011;10958;50.892;3.992;2023-06-04T07:00:35;2.92;;;1.52;;
21591;SDS011;10958;50.892;3.992;2023-06-04T07:03:04;2.58;;;1.60;;
21591;SDS011;10958;50.892;3.992;2023-06-04T07:05:30;4.72;;;1.90;;
21591;SDS011;10958;50.892;3.992;2023-06-04T07:07:56;2.50;;;1.42;;
21591;SDS011;10958;50.892;3.992;2023-06-04T07:10:23;3.10;;;1.80;;
21591;SDS011;10958;50.892;3.992;2023-06-04T07:12:50;3.80;;;1.80;;
21591;SDS011;10958;50.892;3.992;2023-06-04T07:15:16;4.28;;;1.90;;
21591;SDS011;10958;50.892;3.992;2023-06-04T07:17:43;4.53;;;1.83;;
21591;SDS011;10958;50.892;3.992;2023-06-04T07:20:09;4.72;;;1.70;;
21591;SDS011;10958;50.892;3.992;2023-06-04T07:22:35;3.85;;;1.50;;
21591;SDS011;10958;50.892;3.992;2023-06-04T07:25:01;2.20;;;1.60;;
21591;SDS011;10958;50.892;3.992;2023-06-04T07:29:55;4.28;;;1.83;;
21591;SDS011;10958;50.892;3.992;2023-06-04T07:32:21;3.85;;;1.70;;
21591;SDS011;10958;50.892;3.992;2023-06-04T07:34:47;3.38;;;1.52;;
21591;SDS011;10958;50.892;3.992;2023-06-04T07:37:15;1.70;;;1.40;;
21591;SDS011;10958;50.892;3.992;2023-06-04T07:39:41;2.95;;;1.70;;
21591;SDS011;10958;50.892;3.992;2023-06-04T07:42:07;3.15;;;1.48;;
21591;SDS011;10958;50.892;3.992;2023-06-04T07:44:33;5.40;;;1.65;;
21591;SDS011;10958;50.892;3.992;2023-06-04T07:49:27;2.22;;;1.45;;
21591;SDS011;10958;50.892;3.992;2023-06-04T07:51:53;5.40;;;1.73;;
21591;SDS011;10958;50.892;3.992;2023-06-04T07:54:19;1.70;;;1.27;;
21591;SDS011;10958;50.892;3.992;2023-06-04T07:56:45;3.95;;;1.60;;
21591;SDS011;10958;50.892;3.992;2023-06-04T07:59:11;2.65;;;1.48;;
21591;SDS011;10958;50.892;3.992;2023-06-04T08:01:37;4.13;;;1.70;;
21591;SDS011;10958;50.892;3.992;2023-06-04T08:04:03;4.30;;;1.80;;
21591;SDS011;10958;50.892;3.992;2023-06-04T08:06:29;2.10;;;1.40;;
21591;SDS011;10958;50.892;3.992;2023-06-04T08:08:55;1.75;;;1.52;;
21591;SDS011;10958;50.892;3.992;2023-06-04T08:11:20;2.28;;;1.40;;
21591;SDS011;10958;50.892;3.992;2023-06-04T08:18:44;1.73;;;1.20;;
21591;SDS011;10958;50.892;3.992;2023-06-04T08:21:10;1.60;;;1.48;;
21591;SDS011;10958;50.892;3.992;2023-06-04T08:23:36;2.13;;;1.20;;
21591;SDS011;10958;50.892;3.992;2023-06-04T08:26:03;3.25;;;1.27;;
21591;SDS011;10958;50.892;3.992;2023-06-04T08:28:28;2.08;;;1.38;;
21591;SDS011;10958;50.892;3.992;2023-06-04T08:30:54;5.05;;;1.35;;
21591;SDS011;10958;50.892;3.992;2023-06-04T08:33:20;2.58;;;1.35;;
21591;SDS011;10958;50.892;3.992;2023-06-04T08:35:46;2.38;;;1.40;;
21591;SDS011;10958;50.892;3.992;2023-06-04T08:38:12;1.85;;;1.15;;
21591;SDS011;10958;50.892;3.992;2023-06-04T08:40:37;2.58;;;1.20;;
21591;SDS011;10958;50.892;3.992;2023-06-04T08:43:06;3.17;;;1.20;;
21591;SDS011;10958;50.892;3.992;2023-06-04T08:45:33;1.10;;;1.00;;
21591;SDS011;10958;50.892;3.992;2023-06-04T08:48:04;4.25;;;1.20;;
21591;SDS011;10958;50.892;3.992;2023-06-04T08:50:35;2.17;;;1.10;;
21591;SDS011;10958;50.892;3.992;2023-06-04T08:53:04;3.65;;;1.30;;
21591;SDS011;10958;50.892;3.992;2023-06-04T08:55:31;3.28;;;1.33;;
21591;SDS011;10958;50.892;3.992;2023-06-04T08:57:57;1.88;;;1.30;;
21591;SDS011;10958;50.892;3.992;2023-06-04T09:00:24;1.90;;;1.10;;
21591;SDS011;10958;50.892;3.992;2023-06-04T09:02:50;1.67;;;1.05;;
21591;SDS011;10958;50.892;3.992;2023-06-04T09:05:19;2.08;;;0.88;;
21591;SDS011;10958;50.892;3.992;2023-06-04T09:07:47;2.25;;;1.10;;
21591;SDS011;10958;50.892;3.992;2023-06-04T09:10:18;1.70;;;1.13;;
21591;SDS011;10958;50.892;3.992;2023-06-04T09:12:50;1.73;;;1.17;;
21591;SDS011;10958;50.892;3.992;2023-06-04T09:15:17;2.63;;;1.08;;
21591;SDS011;10958;50.892;3.992;2023-06-04T09:17:46;1.67;;;1.20;;
21591;SDS011;10958;50.892;3.992;2023-06-04T09:20:19;1.60;;;0.85;;
21591;SDS011;10958;50.892;3.992;2023-06-04T09:22:46;1.10;;;1.00;;
21591;SDS011;10958;50.892;3.992;2023-06-04T09:25:22;2.28;;;1.10;;
21591;SDS011;10958;50.892;3.992;2023-06-04T09:27:54;2.22;;;1.17;;
21591;SDS011;10958;50.892;3.992;2023-06-04T09:30:21;2.80;;;1.15;;
21591;SDS011;10958;50.892;3.992;2023-06-04T09:32:48;1.58;;;0.90;;
21591;SDS011;10958;50.892;3.992;2023-06-04T09:35:18;2.78;;;1.00;;
21591;SDS011;10958;50.892;3.992;2023-06-04T09:37:56;3.22;;;1.05;;
21591;SDS011;10958;50.892;3.992;2023-06-04T09:40:23;4.75;;;1.38;;
21591;SDS011;10958;50.892;3.992;2023-06-04T09:42:53;3.10;;;1.45;;
21591;SDS011;10958;50.892;3.992;2023-06-04T09:45:30;1.77;;;1.00;;
21591;SDS011;10958;50.892;3.992;2023-06-04T09:48:00;3.28;;;0.85;;
21591;SDS011;10958;50.892;3.992;2023-06-04T09:50:27;4.65;;;1.08;;
21591;SDS011;10958;50.892;3.992;2023-06-04T09:52:57;1.98;;;0.90;;
21591;SDS011;10958;50.892;3.992;2023-06-04T09:55:23;2.65;;;1.10;;
21591;SDS011;10958;50.892;3.992;2023-06-04T09:57:52;3.05;;;1.33;;
21591;SDS011;10958;50.892;3.992;2023-06-04T10:00:19;2.58;;;1.02;;
21591;SDS011;10958;50.892;3.992;2023-06-04T10:02:46;2.65;;;1.02;;
21591;SDS011;10958;50.892;3.992;2023-06-04T10:05:14;1.42;;;1.05;;
21591;SDS011;10958;50.892;3.992;2023-06-04T10:07:46;3.10;;;1.10;;
21591;SDS011;10958;50.892;3.992;2023-06-04T10:10:15;3.38;;;1.30;;
21591;SDS011;10958;50.892;3.992;2023-06-04T10:12:43;3.90;;;0.90;;
21591;SDS011;10958;50.892;3.992;2023-06-04T10:15:15;2.47;;;1.17;;
21591;SDS011;10958;50.892;3.992;2023-06-04T10:17:45;3.38;;;1.00;;
21591;SDS011;10958;50.892;3.992;2023-06-04T10:20:13;2.17;;;1.17;;
21591;SDS011;10958;50.892;3.992;2023-06-04T10:25:11;3.63;;;1.08;;
21591;SDS011;10958;50.892;3.992;2023-06-04T10:27:37;1.90;;;1.08;;
21591;SDS011;10958;50.892;3.992;2023-06-04T10:30:04;3.47;;;1.00;;
21591;SDS011;10958;50.892;3.992;2023-06-04T10:32:31;5.40;;;0.95;;
21591;SDS011;10958;50.892;3.992;2023-06-04T10:34:57;2.97;;;1.40;;
21591;SDS011;10958;50.892;3.992;2023-06-04T10:37:25;2.42;;;1.00;;
21591;SDS011;10958;50.892;3.992;2023-06-04T10:39:52;1.52;;;0.80;;
21591;SDS011;10958;50.892;3.992;2023-06-04T10:42:19;2.17;;;1.10;;
21591;SDS011;10958;50.892;3.992;2023-06-04T10:44:55;2.65;;;1.10;;
21591;SDS011;10958;50.892;3.992;2023-06-04T10:47:22;4.53;;;1.10;;
21591;SDS011;10958;50.892;3.992;2023-06-04T10:49:54;2.25;;;1.10;;
21591;SDS011;10958;50.892;3.992;2023-06-04T10:52:34;1.50;;;1.10;;
21591;SDS011;10958;50.892;3.992;2023-06-04T10:55:03;1.73;;;1.00;;
21591;SDS011;10958;50.892;3.992;2023-06-04T10:57:30;3.80;;;0.98;;
21591;SDS011;10958;50.892;3.992;2023-06-04T10:59:57;2.10;;;1.02;;
21591;SDS011;10958;50.892;3.992;2023-06-04T11:02:23;3.33;;;1.00;;
21591;SDS011;10958;50.892;3.992;2023-06-04T11:05:02;2.17;;;1.13;;
21591;SDS011;10958;50.892;3.992;2023-06-04T11:07:44;5.00;;;1.20;;
21591;SDS011;10958;50.892;3.992;2023-06-04T11:10:12;1.73;;;0.80;;
21591;SDS011;10958;50.892;3.992;2023-06-04T11:12:46;2.10;;;0.98;;
21591;SDS011;10958;50.892;3.992;2023-06-04T11:15:18;1.88;;;1.02;;
21591;SDS011;10958;50.892;3.992;2023-06-04T11:20:20;3.35;;;0.93;;
21591;SDS011;10958;50.892;3.992;2023-06-04T11:22:50;3.55;;;0.90;;
21591;SDS011;10958;50.892;3.992;2023-06-04T11:25:21;2.90;;;1.17;;
21591;SDS011;10958;50.892;3.992;2023-06-04T11:27:48;2.90;;;1.13;;
21591;SDS011;10958;50.892;3.992;2023-06-04T11:30:15;2.03;;;1.00;;
21591;SDS011;10958;50.892;3.992;2023-06-04T11:32:41;1.60;;;1.20;;
21591;SDS011;10958;50.892;3.992;2023-06-04T11:35:09;2.70;;;1.10;;
21591;SDS011;10958;50.892;3.992;2023-06-04T11:37:40;1.25;;;0.82;;
21591;SDS011;10958;50.892;3.992;2023-06-04T11:40:18;2.95;;;1.00;;
21591;SDS011;10958;50.892;3.992;2023-06-04T11:42:47;2.35;;;0.90;;
21591;SDS011;10958;50.892;3.992;2023-06-04T11:45:15;2.42;;;1.00;;
21591;SDS011;10958;50.892;3.992;2023-06-04T11:47:46;2.83;;;0.98;;
21591;SDS011;10958;50.892;3.992;2023-06-04T11:50:13;6.32;;;1.15;;
21591;SDS011;10958;50.892;3.992;2023-06-04T11:52:40;3.90;;;1.35;;
21591;SDS011;10958;50.892;3.992;2023-06-04T11:55:10;1.27;;;0.88;;
21591;SDS011;10958;50.892;3.992;2023-06-04T11:57:40;1.98;;;1.02;;
21591;SDS011;10958;50.892;3.992;2023-06-04T12:00:10;2.97;;;0.95;;
21591;SDS011;10958;50.892;3.992;2023-06-04T12:02:37;2.80;;;0.98;;
21591;SDS011;10958;50.892;3.992;2023-06-04T12:05:13;2.70;;;1.10;;
21591;SDS011;10958;50.892;3.992;2023-06-04T12:07:40;1.40;;;1.20;;
21591;SDS011;10958;50.892;3.992;2023-06-04T12:10:09;1.95;;;0.98;;
21591;SDS011;10958;50.892;3.992;2023-06-04T12:12:36;3.58;;;1.27;;
21591;SDS011;10958;50.892;3.992;2023-06-04T12:15:03;4.20;;;1.10;;
21591;SDS011;10958;50.892;3.992;2023-06-04T12:17:31;4.60;;;1.17;;
21591;SDS011;10958;50.892;3.992;2023-06-04T12:19:57;4.95;;;1.02;;
21591;SDS011;10958;50.892;3.992;2023-06-04T12:22:30;1.00;;;0.75;;
21591;SDS011;10958;50.892;3.992;2023-06-04T12:24:57;2.55;;;1.10;;
21591;SDS011;10958;50.892;3.992;2023-06-04T12:27:27;1.10;;;0.90;;
21591;SDS011;10958;50.892;3.992;2023-06-04T12:32:30;4.43;;;1.08;;
21591;SDS011;10958;50.892;3.992;2023-06-04T12:37:57;2.80;;;1.10;;
21591;SDS011;10958;50.892;3.992;2023-06-04T12:40:38;2.22;;;1.10;;
21591;SDS011;10958;50.892;3.992;2023-06-04T12:43:29;2.58;;;1.30;;
21591;SDS011;10958;50.892;3.992;2023-06-04T12:46:03;5.18;;;1.00;;
21591;SDS011;10958;50.892;3.992;2023-06-04T12:48:29;3.80;;;1.40;;
21591;SDS011;10958;50.892;3.992;2023-06-04T12:51:14;2.60;;;1.00;;
21591;SDS011;10958;50.892;3.992;2023-06-04T12:54:01;2.72;;;0.95;;
21591;SDS011;10958;50.892;3.992;2023-06-04T12:57:11;3.42;;;1.13;;
21591;SDS011;10958;50.892;3.992;2023-06-04T12:59:45;5.57;;;1.30;;
21591;SDS011;10958;50.892;3.992;2023-06-04T13:02:35;2.92;;;1.02;;
21591;SDS011;10958;50.892;3.992;2023-06-04T13:05:02;4.43;;;1.10;;
21591;SDS011;10958;50.892;3.992;2023-06-04T13:07:31;6.25;;;1.10;;
21591;SDS011;10958;50.892;3.992;2023-06-04T13:10:07;4.57;;;1.15;;
21591;SDS011;10958;50.892;3.992;2023-06-04T13:14:55;1.40;;;1.02;;
21591;SDS011;10958;50.892;3.992;2023-06-04T13:17:24;3.08;;;1.30;;
21591;SDS011;10958;50.892;3.992;2023-06-04T13:19:49;5.22;;;1.23;;
21591;SDS011;10958;50.892;3.992;2023-06-04T13:22:16;2.70;;;1.30;;
21591;SDS011;10958;50.892;3.992;2023-06-04T13:24:42;4.50;;;1.33;;
21591;SDS011;10958;50.892;3.992;2023-06-04T13:27:15;4.63;;;1.23;;
21591;SDS011;10958;50.892;3.992;2023-06-04T13:29:47;7.18;;;1.42;;
21591;SDS011;10958;50.892;3.992;2023-06-04T13:32:14;2.67;;;1.10;;
21591;SDS011;10958;50.892;3.992;2023-06-04T13:34:39;1.40;;;1.10;;
21591;SDS011;10958;50.892;3.992;2023-06-04T13:37:05;1.88;;;1.10;;
21591;SDS011;10958;50.892;3.992;2023-06-04T13:39:32;2.03;;;1.23;;
21591;SDS011;10958;50.892;3.992;2023-06-04T13:41:57;3.55;;;1.20;;
21591;SDS011;10958;50.892;3.992;2023-06-04T13:44:23;5.93;;;1.45;;
21591;SDS011;10958;50.892;3.992;2023-06-04T13:46:51;7.28;;;1.75;;
21591;SDS011;10958;50.892;3.992;2023-06-04T13:49:18;2.03;;;1.10;;
21591;SDS011;10958;50.892;3.992;2023-06-04T13:51:44;3.70;;;1.40;;
21591;SDS011;10958;50.892;3.992;2023-06-04T13:54:12;4.15;;;1.40;;
21591;SDS011;10958;50.892;3.992;2023-06-04T13:56:38;4.05;;;1.27;;
21591;SDS011;10958;50.892;3.992;2023-06-04T13:59:05;2.53;;;1.33;;
21591;SDS011;10958;50.892;3.992;2023-06-04T14:01:31;6.38;;;1.50;;
21591;SDS011;10958;50.892;3.992;2023-06-04T14:03:57;3.70;;;2.13;;
21591;SDS011;10958;50.892;3.992;2023-06-04T14:06:31;2.28;;;1.40;;
21591;SDS011;10958;50.892;3.992;2023-06-04T14:08:58;2.92;;;1.67;;
21591;SDS011;10958;50.892;3.992;2023-06-04T14:11:24;2.50;;;1.30;;
21591;SDS011;10958;50.892;3.992;2023-06-04T14:13:51;1.98;;;1.50;;
21591;SDS011;10958;50.892;3.992;2023-06-04T14:16:17;2.42;;;1.38;;
21591;SDS011;10958;50.892;3.992;2023-06-04T14:18:43;3.95;;;1.33;;
21591;SDS011;10958;50.892;3.992;2023-06-04T14:21:09;1.40;;;1.30;;
21591;SDS011;10958;50.892;3.992;2023-06-04T14:23:35;3.15;;;1.48;;
21591;SDS011;10958;50.892;3.992;2023-06-04T14:26:01;3.17;;;1.38;;
21591;SDS011;10958;50.892;3.992;2023-06-04T14:28:29;2.00;;;1.55;;
21591;SDS011;10958;50.892;3.992;2023-06-04T14:30:55;3.97;;;1.60;;
21591;SDS011;10958;50.892;3.992;2023-06-04T14:33:23;1.63;;;1.35;;
21591;SDS011;10958;50.892;3.992;2023-06-04T14:35:49;3.85;;;1.48;;
21591;SDS011;10958;50.892;3.992;2023-06-04T14:38:16;4.30;;;1.33;;
21591;SDS011;10958;50.892;3.992;2023-06-04T14:40:42;4.57;;;1.45;;
21591;SDS011;10958;50.892;3.992;2023-06-04T14:43:10;3.95;;;1.42;;
21591;SDS011;10958;50.892;3.992;2023-06-04T14:45:36;4.27;;;1.63;;
21591;SDS011;10958;50.892;3.992;2023-06-04T14:48:03;6.47;;;1.83;;
21591;SDS011;10958;50.892;3.992;2023-06-04T14:50:30;5.13;;;1.88;;
21591;SDS011;10958;50.892;3.992;2023-06-04T14:52:56;4.25;;;1.42;;
21591;SDS011;10958;50.892;3.992;2023-06-04T14:55:23;2.92;;;1.60;;
21591;SDS011;10958;50.892;3.992;2023-06-04T14:57:51;2.42;;;1.65;;
21591;SDS011;10958;50.892;3.992;2023-06-04T15:02:45;1.98;;;1.50;;
21591;SDS011;10958;50.892;3.992;2023-06-04T15:05:13;2.00;;;1.55;;
21591;SDS011;10958;50.892;3.992;2023-06-04T15:07:39;2.90;;;1.30;;
21591;SDS011;10958;50.892;3.992;2023-06-04T15:10:05;4.60;;;1.60;;
21591;SDS011;10958;50.892;3.992;2023-06-04T15:12:31;4.97;;;1.60;;
21591;SDS011;10958;50.892;3.992;2023-06-04T15:15:03;4.50;;;1.60;;
21591;SDS011;10958;50.892;3.992;2023-06-04T15:17:39;1.50;;;1.38;;
21591;SDS011;10958;50.892;3.992;2023-06-04T15:20:05;3.22;;;1.40;;
21591;SDS011;10958;50.892;3.992;2023-06-04T15:22:32;3.58;;;1.38;;
21591;SDS011;10958;50.892;3.992;2023-06-04T15:24:58;5.28;;;1.33;;
21591;SDS011;10958;50.892;3.992;2023-06-04T15:27:24;4.18;;;1.35;;